Time;durP1;ratioP1;P1;durP2;ratioP2;P2;SDS_P1;SDS_P2;PMS_P1;PMS_P2;Temp;Humidity;BMP_temperature;BMP_pressure;BME280_temperature;BME280_humidity;BME280_pressure;Samples;Min_cycle;Max_cycle;Signal;HPM_P1;HPM_P2
2021/04/28 00:00:27;;;;;;;4.13;3.63;;;9.80;5.50;;;;;;5031119;28;20233;-50
2021/04/28 00:02:54;;;;;;;3.87;3.30;;;9.80;6.30;;;;;;5031358;28;20609;-49
2021/04/28 00:05:23;;;;;;;5.57;3.90;;;9.80;5.90;;;;;;5035655;28;20227;-50
2021/04/28 00:07:50;;;;;;;6.50;4.53;;;9.70;6.90;;;;;;5034666;28;20278;-49
2021/04/28 00:10:19;;;;;;;3.83;3.30;;;9.60;8.50;;;;;;5025499;28;20201;-49
2021/04/28 00:12:46;;;;;;;3.77;3.33;;;9.70;8.70;;;;;;5034566;28;20242;-49
2021/04/28 00:15:16;;;;;;;8.73;3.90;;;9.60;9.50;;;;;;5035106;28;20242;-49
2021/04/28 00:17:44;;;;;;;5.23;4.03;;;9.40;11.30;;;;;;5036749;28;20268;-50
2021/04/28 00:20:12;;;;;;;7.90;3.90;;;9.50;11.90;;;;;;5029030;28;20779;-50
2021/04/28 00:22:40;;;;;;;4.80;3.77;;;9.60;13.00;;;;;;5031657;28;20355;-49
2021/04/28 00:25:10;;;;;;;5.10;3.73;;;9.70;11.80;;;;;;5025846;28;20557;-49
2021/04/28 00:27:36;;;;;;;5.40;3.63;;;9.60;13.00;;;;;;5034826;28;20269;-49
2021/04/28 00:30:06;;;;;;;5.43;4.00;;;9.60;15.20;;;;;;5033038;28;20195;-49
2021/04/28 00:32:34;;;;;;;5.80;4.10;;;9.50;15.10;;;;;;5034596;28;20281;-50
2021/04/28 00:35:02;;;;;;;4.80;4.03;;;9.50;16.70;;;;;;5036546;28;20555;-49
2021/04/28 00:37:29;;;;;;;4.50;3.47;;;9.50;17.60;;;;;;5033923;28;20201;-50
2021/04/28 00:39:55;;;;;;;4.60;4.17;;;9.60;16.60;;;;;;5026763;28;20302;-50
2021/04/28 00:42:21;;;;;;;4.43;3.83;;;9.40;18.10;;;;;;5037964;28;20269;-49
2021/04/28 00:44:49;;;;;;;4.93;3.63;;;9.40;19.50;;;;;;5031535;28;20202;-49
2021/04/28 00:47:15;;;;;;;5.20;4.07;;;9.30;20.30;;;;;;5035512;28;20233;-50
2021/04/28 00:49:42;;;;;;;5.23;3.83;;;9.40;20.50;;;;;;5033103;28;20282;-49
2021/04/28 00:52:09;;;;;;;6.93;4.10;;;9.30;22.30;;;;;;5032048;28;20227;-49
2021/04/28 00:54:36;;;;;;;4.33;3.93;;;9.30;22.40;;;;;;5036521;28;20312;-49
2021/04/28 00:57:04;;;;;;;7.00;3.97;;;9.40;22.00;;;;;;5035035;28;20250;-50
2021/04/28 00:59:31;;;;;;;6.60;5.17;;;9.60;22.10;;;;;;5030914;28;20200;-49
2021/04/28 01:01:57;;;;;;;4.80;4.00;;;9.30;23.20;;;;;;5030278;28;20224;-49
2021/04/28 01:04:25;;;;;;;5.23;4.17;;;9.20;25.50;;;;;;5029330;28;20238;-50
2021/04/28 01:06:52;;;;;;;6.50;4.17;;;9.20;26.00;;;;;;5037841;28;20279;-49
2021/04/28 01:09:21;;;;;;;6.13;4.03;;;9.30;26.00;;;;;;5033395;28;20233;-50
2021/04/28 01:11:48;;;;;;;5.07;3.70;;;9.20;25.50;;;;;;5030180;28;20239;-50
2021/04/28 01:14:15;;;;;;;6.17;3.50;;;9.10;27.50;;;;;;5032885;28;20264;-49
2021/04/28 01:16:41;;;;;;;4.60;4.20;;;9.00;28.80;;;;;;5030366;28;20267;-50
2021/04/28 01:19:08;;;;;;;5.93;4.10;;;8.90;29.30;;;;;;5034484;28;20618;-50
2021/04/28 01:21:35;;;;;;;4.83;4.13;;;9.00;30.20;;;;;;5029636;28;20201;-50
2021/04/28 01:24:02;;;;;;;6.37;4.17;;;9.10;29.90;;;;;;5032521;28;20224;-50
2021/04/28 01:26:29;;;;;;;6.70;3.80;;;9.00;31.70;;;;;;5029895;28;20303;-50
2021/04/28 01:29:00;;;;;;;5.67;4.20;;;8.90;32.30;;;;;;5029619;28;20189;-50
2021/04/28 01:31:29;;;;;;;4.57;3.93;;;8.90;33.90;;;;;;5023247;28;20198;-49
2021/04/28 01:34:03;;;;;;;4.47;3.93;;;8.80;33.90;;;;;;5030610;28;20605;-49
2021/04/28 01:36:35;;;;;;;7.30;4.53;;;8.90;35.20;;;;;;5027197;28;20465;-49
2021/04/28 01:39:10;;;;;;;3.93;3.63;;;8.80;36.20;;;;;;5028562;28;20207;-49
2021/04/28 01:41:42;;;;;;;6.13;4.10;;;8.60;37.70;;;;;;5031609;28;20243;-49
2021/04/28 01:44:11;;;;;;;7.83;4.00;;;8.70;38.50;;;;;;5030241;28;20231;-50
2021/04/28 01:46:38;;;;;;;4.53;4.10;;;8.70;38.70;;;;;;5026708;28;20621;-50
2021/04/28 01:49:06;;;;;;;5.43;4.20;;;8.70;40.40;;;;;;5027410;28;20204;-49
2021/04/28 01:51:34;;;;;;;5.03;4.17;;;8.70;39.60;;;;;;5037308;28;21833;-50
2021/04/28 01:54:02;;;;;;;5.63;3.80;;;8.60;41.10;;;;;;5029283;28;20620;-50
2021/04/28 01:56:30;;;;;;;6.20;4.57;;;8.40;43.10;;;;;;5030185;28;20283;-50
2021/04/28 01:58:57;;;;;;;7.60;4.83;;;8.30;43.60;;;;;;5029326;28;20228;-49
2021/04/28 02:01:24;;;;;;;5.20;3.57;;;8.30;44.00;;;;;;5023786;28;20274;-50
2021/04/28 02:03:53;;;;;;;6.03;4.00;;;8.40;44.70;;;;;;5027907;28;20218;-49
2021/04/28 02:06:20;;;;;;;4.73;3.93;;;8.40;46.40;;;;;;5030465;28;20253;-49
2021/04/28 02:08:47;;;;;;;4.67;4.03;;;8.40;45.90;;;;;;5027930;28;20281;-49
2021/04/28 02:11:13;;;;;;;4.97;3.97;;;8.40;44.30;;;;;;5029518;28;20222;-49
2021/04/28 02:13:43;;;;;;;4.83;3.93;;;8.20;46.60;;;;;;5033118;28;20234;-49
2021/04/28 02:16:11;;;;;;;4.17;3.63;;;8.10;48.00;;;;;;5026876;28;20640;-49
2021/04/28 02:18:39;;;;;;;4.10;3.50;;;8.20;48.50;;;;;;5034146;28;20221;-49
2021/04/28 02:21:05;;;;;;;5.30;4.07;;;8.00;49.20;;;;;;5036832;28;20324;-49
2021/04/28 02:23:36;;;;;;;4.60;3.63;;;8.10;49.90;;;;;;5033387;28;20210;-48
2021/04/28 02:26:03;;;;;;;8.27;4.37;;;8.10;50.40;;;;;;5030082;28;20202;-49
2021/04/28 02:28:29;;;;;;;4.57;3.77;;;8.10;51.20;;;;;;5033006;28;20280;-49
2021/04/28 02:30:56;;;;;;;6.03;4.70;;;8.00;51.40;;;;;;5032461;28;20632;-49
2021/04/28 02:33:22;;;;;;;5.57;4.40;;;8.00;52.10;;;;;;5027020;28;20251;-50
2021/04/28 02:35:49;;;;;;;4.90;4.33;;;7.80;53.80;;;;;;5035108;28;20200;-49
2021/04/28 02:38:23;;;;;;;6.67;4.23;;;8.00;52.20;;;;;;5024744;28;20623;-49
2021/04/28 02:40:50;;;;;;;5.07;4.20;;;7.90;52.20;;;;;;5026425;28;20854;-49
2021/04/28 02:43:19;;;;;;;7.13;4.33;;;7.90;53.40;;;;;;5029929;28;20280;-50
2021/04/28 02:45:48;;;;;;;4.60;4.13;;;7.90;53.50;;;;;;5030321;28;20630;-50
2021/04/28 02:48:16;;;;;;;5.43;4.13;;;7.90;53.50;;;;;;5031311;28;20283;-50
2021/04/28 02:50:43;;;;;;;9.03;3.90;;;7.70;54.90;;;;;;5036230;28;20270;-50
2021/04/28 02:53:13;;;;;;;6.27;3.93;;;7.70;56.00;;;;;;5030146;28;20230;-49
2021/04/28 02:55:39;;;;;;;6.40;3.87;;;7.70;55.80;;;;;;5032039;28;20242;-49
2021/04/28 02:58:06;;;;;;;5.00;4.10;;;7.80;56.00;;;;;;5030408;28;20363;-49
2021/04/28 03:00:33;;;;;;;5.50;4.67;;;7.60;57.70;;;;;;5028151;28;21733;-50
2021/04/28 03:02:59;;;;;;;4.57;3.97;;;7.60;57.10;;;;;;5041676;28;20243;-49
2021/04/28 03:05:26;;;;;;;8.20;4.30;;;7.60;57.10;;;;;;5034758;28;20261;-49
2021/04/28 03:07:54;;;;;;;6.63;4.33;;;7.60;57.00;;;;;;5031660;28;20277;-49
2021/04/28 03:10:21;;;;;;;5.60;4.60;;;7.60;58.60;;;;;;5033481;28;20202;-49
2021/04/28 03:12:48;;;;;;;6.63;3.90;;;7.60;58.30;;;;;;5028316;28;20250;-49
2021/04/28 03:15:17;;;;;;;6.33;4.10;;;7.50;58.10;;;;;;5024890;28;20632;-49
2021/04/28 03:17:47;;;;;;;6.17;4.13;;;7.60;58.30;;;;;;5042199;28;20236;-49
2021/04/28 03:20:14;;;;;;;6.57;3.90;;;7.50;57.70;;;;;;5035053;28;20337;-49
2021/04/28 03:22:41;;;;;;;7.43;4.13;;;7.50;59.20;;;;;;5031375;28;20209;-49
2021/04/28 03:25:09;;;;;;;9.63;4.00;;;7.50;59.30;;;;;;5030843;28;20280;-49
2021/04/28 03:27:35;;;;;;;4.50;4.07;;;7.40;60.50;;;;;;5036146;28;20220;-50
2021/04/28 03:30:05;;;;;;;6.47;3.97;;;7.40;60.00;;;;;;5034758;28;20202;-49
2021/04/28 03:32:31;;;;;;;6.93;4.20;;;7.40;59.60;;;;;;5035008;28;20691;-49
2021/04/28 03:34:58;;;;;;;8.23;4.27;;;7.50;60.00;;;;;;5034210;28;20475;-49
2021/04/28 03:37:24;;;;;;;4.33;3.63;;;7.40;59.60;;;;;;5035724;28;20235;-50
2021/04/28 03:39:51;;;;;;;5.67;4.07;;;7.40;60.30;;;;;;5027469;28;20575;-49
2021/04/28 03:42:17;;;;;;;5.70;4.23;;;7.40;60.00;;;;;;5031386;28;20720;-49
2021/04/28 03:44:44;;;;;;;5.63;4.50;;;7.50;61.20;;;;;;5033354;28;20279;-49
2021/04/28 03:47:10;;;;;;;6.60;4.37;;;7.40;59.80;;;;;;5028821;28;20212;-49
2021/04/28 03:49:37;;;;;;;6.03;3.87;;;7.40;59.60;;;;;;5031551;28;20280;-49
2021/04/28 03:52:03;;;;;;;6.37;5.00;;;7.20;62.00;;;;;;5038353;28;20235;-49
2021/04/28 03:54:30;;;;;;;7.03;4.07;;;7.20;63.30;;;;;;5043170;28;20239;-49
2021/04/28 03:56:56;;;;;;;6.13;4.23;;;7.20;60.80;;;;;;5038111;28;20208;-49
2021/04/28 03:59:22;;;;;;;8.17;4.60;;;7.20;62.50;;;;;;5033470;28;20658;-49
2021/04/28 04:01:48;;;;;;;5.73;4.30;;;7.30;62.00;;;;;;5033732;28;20244;-49
2021/04/28 04:04:15;;;;;;;5.90;3.93;;;7.20;61.50;;;;;;5033148;28;20204;-49
2021/04/28 04:06:41;;;;;;;6.43;4.13;;;7.20;61.70;;;;;;5036694;28;20495;-49
2021/04/28 04:09:08;;;;;;;5.60;4.23;;;7.30;59.70;;;;;;5037057;28;20787;-49
2021/04/28 04:11:35;;;;;;;6.57;4.27;;;7.30;61.00;;;;;;5036605;28;21115;-49
2021/04/28 04:14:02;;;;;;;5.30;4.57;;;7.20;61.10;;;;;;5029461;28;20212;-49
2021/04/28 04:16:28;;;;;;;6.27;4.30;;;7.10;62.30;;;;;;5029820;28;20290;-49
2021/04/28 04:18:54;;;;;;;5.93;4.17;;;7.10;63.00;;;;;;5032718;28;20208;-50
2021/04/28 04:21:21;;;;;;;8.60;4.43;;;7.20;62.80;;;;;;5029961;28;20621;-49
2021/04/28 04:23:47;;;;;;;6.73;4.50;;;7.10;63.00;;;;;;5035453;28;20575;-49
2021/04/28 04:26:15;;;;;;;4.97;4.43;;;7.00;64.20;;;;;;5035068;28;20242;-49
2021/04/28 04:28:41;;;;;;;7.93;4.60;;;7.00;64.80;;;;;;5031512;28;20235;-50
2021/04/28 04:31:08;;;;;;;4.97;3.97;;;7.10;65.50;;;;;;5032133;28;20282;-49
2021/04/28 04:33:34;;;;;;;5.73;3.97;;;7.20;61.50;;;;;;5033998;28;20235;-49
2021/04/28 04:36:00;;;;;;;6.10;4.40;;;7.10;64.20;;;;;;5031263;28;20259;-49
2021/04/28 04:38:26;;;;;;;9.20;4.17;;;7.10;64.20;;;;;;5032154;28;20257;-49
2021/04/28 04:40:54;;;;;;;5.17;4.30;;;7.00;66.40;;;;;;5030296;28;20692;-49
2021/04/28 04:43:20;;;;;;;6.10;4.30;;;7.00;68.10;;;;;;5031556;28;20216;-49
2021/04/28 04:45:47;;;;;;;7.17;4.50;;;7.10;66.70;;;;;;5029391;28;20667;-49
2021/04/28 04:48:13;;;;;;;6.50;4.43;;;7.00;69.40;;;;;;5034467;28;20597;-49
2021/04/28 04:50:40;;;;;;;9.87;4.53;;;7.00;66.20;;;;;;5034667;28;20579;-49
2021/04/28 04:53:07;;;;;;;8.67;4.80;;;7.20;67.00;;;;;;5030837;28;20571;-49
2021/04/28 04:55:33;;;;;;;6.63;4.13;;;7.10;67.50;;;;;;5031763;28;20265;-49
2021/04/28 04:57:59;;;;;;;5.60;4.33;;;7.10;68.10;;;;;;5031557;28;20652;-51
2021/04/28 05:00:26;;;;;;;7.23;4.47;;;7.10;68.40;;;;;;5033447;28;20831;-49
2021/04/28 05:02:56;;;;;;;6.87;4.73;;;7.30;62.60;;;;;;5036662;28;20671;-49
2021/04/28 05:05:22;;;;;;;10.03;4.57;;;7.40;62.80;;;;;;5026578;28;20293;-50
2021/04/28 05:07:48;;;;;;;10.10;4.40;;;7.40;61.20;;;;;;5031219;28;20232;-50
2021/04/28 05:10:15;;;;;;;7.77;4.63;;;7.30;62.30;;;;;;5029583;28;20204;-50
2021/04/28 05:12:45;;;;;;;5.70;4.50;;;7.40;63.60;;;;;;5032470;28;20216;-50
2021/04/28 05:15:15;;;;;;;8.43;4.83;;;7.50;61.20;;;;;;5038038;28;20303;-50
2021/04/28 05:17:42;;;;;;;5.57;4.07;;;7.50;61.80;;;;;;5033333;28;21072;-51
2021/04/28 05:20:11;;;;;;;7.87;3.97;;;7.50;62.50;;;;;;5035406;28;20549;-50
2021/04/28 05:22:38;;;;;;;5.23;4.27;;;7.60;60.00;;;;;;5032937;28;20615;-52
2021/04/28 05:25:05;;;;;;;6.50;4.30;;;7.70;58.70;;;;;;5029277;28;20646;-49
2021/04/28 05:27:32;;;;;;;8.67;5.00;;;7.90;59.10;;;;;;5032189;28;20218;-50
2021/04/28 05:29:59;;;;;;;7.77;4.47;;;8.00;55.80;;;;;;5029037;28;20236;-50
2021/04/28 05:32:26;;;;;;;7.43;5.53;;;8.00;55.10;;;;;;5033703;28;20211;-50
2021/04/28 05:34:53;;;;;;;6.43;4.73;;;8.00;55.20;;;;;;5029301;28;20656;-50
2021/04/28 05:37:20;;;;;;;6.27;5.33;;;7.80;56.30;;;;;;5032095;28;20231;-49
2021/04/28 05:39:47;;;;;;;9.30;4.70;;;8.00;58.30;;;;;;5029919;28;20204;-50
2021/04/28 05:42:15;;;;;;;5.47;4.63;;;8.00;58.60;;;;;;5030780;28;20706;-51
2021/04/28 05:44:42;;;;;;;5.33;4.83;;;8.20;54.90;;;;;;5032538;28;20311;-51
2021/04/28 05:47:08;;;;;;;6.43;4.90;;;8.20;54.40;;;;;;5029593;28;20324;-49
2021/04/28 05:49:35;;;;;;;6.13;4.63;;;8.20;54.90;;;;;;5030656;28;20204;-51
2021/04/28 05:52:02;;;;;;;6.17;4.90;;;8.30;54.60;;;;;;5034733;28;20257;-50
2021/04/28 05:54:29;;;;;;;5.83;4.60;;;8.20;53.30;;;;;;5032995;28;20326;-50
2021/04/28 05:56:56;;;;;;;7.80;5.10;;;8.20;55.00;;;;;;5036443;28;20202;-50
2021/04/28 05:59:23;;;;;;;7.60;4.80;;;8.40;53.30;;;;;;5028176;28;20214;-50
2021/04/28 06:01:49;;;;;;;7.03;5.03;;;8.40;54.70;;;;;;5025060;28;20276;-50
2021/04/28 06:04:16;;;;;;;5.83;4.83;;;8.60;53.70;;;;;;5030990;28;20292;-51
2021/04/28 06:06:45;;;;;;;6.07;4.77;;;8.50;54.10;;;;;;5036504;28;20255;-49
2021/04/28 06:09:11;;;;;;;7.00;4.70;;;8.60;53.40;;;;;;5031807;28;20231;-49
2021/04/28 06:11:38;;;;;;;5.63;4.80;;;8.50;55.30;;;;;;5032473;28;20490;-50
2021/04/28 06:14:04;;;;;;;5.93;4.87;;;8.50;54.50;;;;;;5025576;28;20197;-49
2021/04/28 06:16:31;;;;;;;9.67;5.90;;;8.60;54.50;;;;;;5029655;28;20307;-50
2021/04/28 06:18:57;;;;;;;10.60;5.70;;;8.80;54.30;;;;;;5017107;28;20203;-49
2021/04/28 06:21:24;;;;;;;7.40;5.67;;;8.90;52.10;;;;;;5026784;28;20477;-49
2021/04/28 06:23:50;;;;;;;10.10;5.57;;;8.80;53.60;;;;;;5031349;28;20235;-49
2021/04/28 06:26:18;;;;;;;9.70;5.40;;;8.90;52.50;;;;;;5035057;28;20255;-49
2021/04/28 06:28:45;;;;;;;8.87;5.23;;;8.80;52.50;;;;;;5030604;28;20194;-49
2021/04/28 06:31:11;;;;;;;7.70;5.03;;;9.00;52.90;;;;;;5026461;28;20304;-50
2021/04/28 06:33:42;;;;;;;7.10;5.23;;;9.20;52.10;;;;;;5035336;28;20202;-50
2021/04/28 06:36:09;;;;;;;9.37;5.47;;;9.20;51.40;;;;;;5033487;28;20683;-51
2021/04/28 06:38:37;;;;;;;8.63;5.00;;;9.40;51.20;;;;;;5031485;28;20224;-50
2021/04/28 06:41:04;;;;;;;8.23;6.13;;;9.60;49.60;;;;;;5035811;28;20582;-51
2021/04/28 06:43:31;;;;;;;7.20;5.63;;;9.40;49.70;;;;;;5036279;28;20719;-50
2021/04/28 06:46:05;;;;;;;7.33;4.70;;;9.60;50.20;;;;;;5035157;28;20192;-51
2021/04/28 06:48:32;;;;;;;8.20;5.03;;;9.90;49.70;;;;;;5036396;28;20301;-50
2021/04/28 06:50:58;;;;;;;7.97;5.10;;;9.90;47.30;;;;;;5034509;28;20299;-50
2021/04/28 06:53:25;;;;;;;7.33;5.10;;;9.80;47.40;;;;;;5042771;28;20258;-51
2021/04/28 06:55:51;;;;;;;9.37;5.03;;;10.00;48.10;;;;;;5039109;28;20207;-51
2021/04/28 06:58:18;;;;;;;9.30;6.23;;;10.00;47.20;;;;;;5027159;28;20325;-51
2021/04/28 07:00:44;;;;;;;7.07;5.33;;;10.00;48.40;;;;;;5028159;28;20198;-50
2021/04/28 07:03:10;;;;;;;8.03;5.87;;;10.20;47.00;;;;;;5039701;28;20295;-51
2021/04/28 07:05:37;;;;;;;11.57;5.73;;;10.40;46.50;;;;;;5040540;28;20237;-51
2021/04/28 07:08:04;;;;;;;8.97;5.90;;;10.80;44.80;;;;;;5032571;28;20257;-51
2021/04/28 07:10:30;;;;;;;10.37;6.03;;;10.40;45.40;;;;;;5037388;28;20618;-51
2021/04/28 07:12:56;;;;;;;8.63;6.10;;;10.40;46.00;;;;;;5035963;28;20237;-51
2021/04/28 07:15:23;;;;;;;5.87;5.27;;;10.60;46.00;;;;;;5042644;28;20660;-51
2021/04/28 07:17:50;;;;;;;9.77;5.40;;;11.00;45.60;;;;;;5033062;28;20258;-50
2021/04/28 07:20:17;;;;;;;9.43;5.40;;;11.60;43.70;;;;;;5037519;28;20219;-51
2021/04/28 07:22:44;;;;;;;8.43;5.93;;;11.50;42.10;;;;;;5037897;28;20203;-51
2021/04/28 07:25:11;;;;;;;7.50;5.70;;;11.50;41.90;;;;;;5035330;28;20234;-51
2021/04/28 07:27:39;;;;;;;9.20;5.50;;;11.10;42.80;;;;;;5037108;28;20328;-50
2021/04/28 07:30:07;;;;;;;9.27;6.00;;;11.40;41.90;;;;;;5029031;28;20332;-50
2021/04/28 07:32:34;;;;;;;10.20;6.30;;;11.50;41.60;;;;;;5036904;28;20780;-50
2021/04/28 07:35:00;;;;;;;8.63;5.70;;;11.30;42.50;;;;;;5035026;28;20287;-51
2021/04/28 07:37:27;;;;;;;8.63;5.43;;;11.20;44.40;;;;;;5038597;28;20634;-50
2021/04/28 07:39:53;;;;;;;12.20;6.10;;;11.60;42.70;;;;;;5037560;28;20210;-51
2021/04/28 07:42:19;;;;;;;7.90;5.67;;;11.80;42.30;;;;;;5033393;28;20274;-50
2021/04/28 07:44:45;;;;;;;7.93;5.67;;;12.00;40.50;;;;;;5028378;28;20278;-50
2021/04/28 07:47:12;;;;;;;7.60;5.83;;;12.10;39.70;;;;;;5036163;28;20803;-50
2021/04/28 07:49:38;;;;;;;11.07;5.97;;;12.40;40.80;;;;;;5030522;28;20203;-51
2021/04/28 07:52:16;;;;;;;9.00;5.50;;;12.40;38.70;;;;;;5034898;28;20727;-50
2021/04/28 07:54:43;;;;;;;7.70;5.53;;;12.50;38.10;;;;;;5034560;28;20349;-51
2021/04/28 07:57:09;;;;;;;7.00;5.50;;;12.60;36.20;;;;;;5035983;28;20200;-50
2021/04/28 07:59:35;;;;;;;8.83;5.40;;;12.70;36.00;;;;;;5029506;28;20240;-50
2021/04/28 08:02:02;;;;;;;8.50;5.33;;;13.10;35.50;;;;;;5035652;28;20227;-50
2021/04/28 08:04:29;;;;;;;11.77;5.70;;;13.10;32.70;;;;;;5041049;28;20202;-51
2021/04/28 08:06:55;;;;;;;9.07;5.77;;;12.90;34.20;;;;;;5030520;28;20334;-51
2021/04/28 08:09:22;;;;;;;11.00;6.13;;;13.10;33.70;;;;;;5039490;28;20223;-51
2021/04/28 08:11:48;;;;;;;10.83;6.40;;;12.90;34.80;;;;;;5041515;28;20279;-53
2021/04/28 08:14:14;;;;;;;8.53;5.50;;;13.30;33.70;;;;;;5032598;28;20303;-51
2021/04/28 08:16:41;;;;;;;9.43;6.00;;;13.30;31.80;;;;;;5031909;28;20246;-51
2021/04/28 08:19:07;;;;;;;7.57;5.77;;;13.40;32.80;;;;;;5036818;28;20550;-50
2021/04/28 08:21:34;;;;;;;10.47;6.00;;;13.40;33.10;;;;;;5034323;28;20543;-51
2021/04/28 08:24:00;;;;;;;10.90;5.47;;;13.20;33.90;;;;;;5033803;28;20284;-51
2021/04/28 08:26:27;;;;;;;7.93;6.20;;;13.40;33.50;;;;;;5034739;28;20226;-51
2021/04/28 08:28:56;;;;;;;8.70;6.23;;;13.90;32.00;;;;;;5032605;28;20196;-51
2021/04/28 08:31:23;;;;;;;7.87;5.70;;;13.70;32.80;;;;;;5032605;28;20235;-51
2021/04/28 08:33:50;;;;;;;15.33;6.20;;;13.90;30.60;;;;;;5038439;28;20208;-51
2021/04/28 08:36:17;;;;;;;10.20;6.70;;;13.60;31.60;;;;;;5032004;28;20203;-51
2021/04/28 08:38:44;;;;;;;7.47;5.60;;;13.40;32.10;;;;;;5035323;28;20200;-50
2021/04/28 08:41:12;;;;;;;11.17;7.23;;;14.10;30.30;;;;;;5041895;28;20349;-51
2021/04/28 08:43:39;;;;;;;10.37;5.90;;;14.60;29.10;;;;;;5033444;28;20243;-50
2021/04/28 08:46:06;;;;;;;8.23;5.13;;;14.50;26.60;;;;;;5032828;28;20226;-51
2021/04/28 08:48:33;;;;;;;7.87;5.10;;;14.90;29.90;;;;;;5037232;28;20632;-51
2021/04/28 08:51:01;;;;;;;11.17;5.53;;;15.50;25.90;;;;;;5033783;28;20206;-51
2021/04/28 08:53:29;;;;;;;7.20;5.60;;;15.30;24.10;;;;;;5035393;28;20210;-51
2021/04/28 08:55:56;;;;;;;8.37;6.30;;;15.60;23.50;;;;;;5035021;28;20292;-52
2021/04/28 08:58:23;;;;;;;8.93;5.77;;;16.10;20.90;;;;;;5035095;28;20264;-51
2021/04/28 09:00:51;;;;;;;6.23;5.60;;;15.90;19.30;;;;;;5034490;28;20197;-51
2021/04/28 09:03:19;;;;;;;8.73;5.27;;;16.20;17.60;;;;;;5035165;28;20651;-52
2021/04/28 09:05:47;;;;;;;10.93;6.40;;;16.40;17.40;;;;;;5034009;28;20206;-51
2021/04/28 09:08:14;;;;;;;7.53;5.27;;;16.40;15.80;;;;;;5040240;28;20243;-51
2021/04/28 09:10:42;;;;;;;7.43;5.40;;;15.90;17.50;;;;;;5039175;28;20634;-52
2021/04/28 09:13:17;;;;;;;10.37;6.53;;;15.90;15.80;;;;;;5038445;28;20211;-51
2021/04/28 09:15:48;;;;;;;8.57;6.47;;;16.10;14.40;;;;;;5027689;28;20269;-51
2021/04/28 09:18:17;;;;;;;7.57;6.03;;;16.40;13.10;;;;;;5031988;28;20580;-51
2021/04/28 09:20:53;;;;;;;9.10;6.47;;;16.20;13.20;;;;;;5034891;28;20295;-51
2021/04/28 09:23:35;;;;;;;10.83;6.67;;;16.10;13.20;;;;;;5028618;28;20224;-51
2021/04/28 09:26:04;;;;;;;9.00;6.33;;;16.30;14.20;;;;;;5031719;28;20308;-51
2021/04/28 09:28:33;;;;;;;11.87;6.50;;;16.40;12.20;;;;;;5033042;28;20212;-51
2021/04/28 09:31:05;;;;;;;10.17;6.60;;;16.30;11.60;;;;;;5029797;28;20713;-51
2021/04/28 09:33:40;;;;;;;9.90;7.10;;;16.10;10.40;;;;;;5030303;28;20855;-50
2021/04/28 09:36:08;;;;;;;8.17;6.70;;;15.80;11.60;;;;;;5032104;28;20532;-51
2021/04/28 09:38:52;;;;;;;9.30;6.47;;;15.80;13.50;;;;;;5032286;28;20226;-50
2021/04/28 09:41:43;;;;;;;9.10;6.53;;;15.90;12.60;;;;;;5038592;28;20253;-51
2021/04/28 09:44:19;;;;;;;8.17;7.03;;;15.70;13.30;;;;;;5030584;28;20681;-51
2021/04/28 09:47:05;;;;;;;9.07;6.50;;;16.00;12.00;;;;;;5028742;28;20197;-51
2021/04/28 09:50:02;;;;;;;7.37;6.60;;;16.00;12.70;;;;;;5037196;28;20210;-51
2021/04/28 09:52:31;;;;;;;11.03;6.23;;;16.30;11.50;;;;;;5032568;28;20192;-51
2021/04/28 09:55:04;;;;;;;13.03;7.90;;;16.50;11.20;;;;;;5027834;28;20207;-50
2021/04/28 09:57:39;;;;;;;8.40;6.53;;;17.00;9.00;;;;;;5032944;28;20243;-51
2021/04/28 10:00:17;;;;;;;8.83;6.57;;;17.30;9.20;;;;;;5031500;28;20198;-51
2021/04/28 10:03:08;;;;;;;7.67;6.77;;;17.20;7.70;;;;;;5032172;28;20221;-51
2021/04/28 10:05:41;;;;;;;11.87;7.30;;;16.70;9.20;;;;;;5031090;28;20231;-51
2021/04/28 10:08:20;;;;;;;10.63;6.90;;;16.80;7.50;;;;;;5025769;28;20211;-50
2021/04/28 10:10:49;;;;;;;11.23;7.50;;;16.80;8.70;;;;;;5034396;28;20204;-51
2021/04/28 10:13:15;;;;;;;9.07;7.10;;;17.10;8.60;;;;;;5037065;28;20204;-51
2021/04/28 10:15:45;;;;;;;10.10;8.07;;;16.80;5.20;;;;;;5030928;28;20197;-51
2021/04/28 10:18:13;;;;;;;9.23;7.00;;;17.00;4.80;;;;;;5037862;28;20401;-51
2021/04/28 10:20:42;;;;;;;9.70;7.10;;;17.20;5.40;;;;;;5032583;28;20264;-51
2021/04/28 10:23:16;;;;;;;9.43;7.53;;;17.80;4.70;;;;;;5030347;28;20634;-51
2021/04/28 10:25:46;;;;;;;8.83;6.73;;;17.60;5.20;;;;;;5029067;28;20197;-51
2021/04/28 10:28:15;;;;;;;10.97;7.57;;;17.50;2.50;;;;;;5033824;28;20230;-52
2021/04/28 10:30:46;;;;;;;13.30;8.43;;;17.70;1.90;;;;;;5029764;28;20225;-51
2021/04/28 10:33:21;;;;;;;11.57;7.73;;;17.60;1.60;;;;;;5033486;28;20258;-51
2021/04/28 10:35:48;;;;;;;10.57;7.83;;;17.80;1.00;;;;;;5040688;28;20526;-51
2021/04/28 10:38:21;;;;;;;11.93;7.27;;;18.00;1.00;;;;;;5035436;28;20227;-51
2021/04/28 10:40:48;;;;;;;13.37;7.90;;;18.40;1.00;;;;;;5034040;28;20203;-51
2021/04/28 10:43:17;;;;;;;10.27;7.80;;;18.40;1.00;;;;;;5035280;28;20705;-51
2021/04/28 10:45:43;;;;;;;12.73;8.50;;;18.60;1.00;;;;;;5039401;28;20207;-51
2021/04/28 10:48:40;;;;;;;10.43;7.37;;;18.60;1.00;;;;;;5028435;28;20208;-51
2021/04/28 10:51:07;;;;;;;12.43;8.00;;;18.10;1.00;;;;;;5037089;28;20198;-51
2021/04/28 10:53:34;;;;;;;11.50;8.17;;;18.60;1.00;;;;;;5031418;28;20257;-50
2021/04/28 10:56:13;;;;;;;11.60;8.03;;;18.60;1.00;;;;;;5029563;28;20762;-51
2021/04/28 10:58:44;;;;;;;9.40;7.90;;;18.70;1.00;;;;;;5030388;28;20293;-51
2021/04/28 11:01:10;;;;;;;10.93;8.27;;;19.10;1.00;;;;;;5030475;28;20257;-50
2021/04/28 11:03:46;;;;;;;11.17;8.63;;;19.10;1.00;;;;;;5031637;28;20261;-51
2021/04/28 11:06:22;;;;;;;11.17;8.33;;;19.20;1.00;;;;;;5032328;28;20200;-51
2021/04/28 11:09:02;;;;;;;8.90;7.63;;;19.70;1.00;;;;;;5034554;28;20231;-51
2021/04/28 11:11:32;;;;;;;11.00;8.40;;;19.60;1.00;;;;;;5035219;28;20200;-50
2021/04/28 11:14:27;;;;;;;10.77;8.03;;;19.60;1.00;;;;;;5032593;28;20692;-51
2021/04/28 11:17:16;;;;;;;10.53;7.53;;;20.00;1.00;;;;;;5029296;28;20273;-50
2021/04/28 11:19:43;;;;;;;16.10;8.03;;;20.30;1.00;;;;;;5033073;28;20732;-50
2021/04/28 11:22:13;;;;;;;12.80;8.93;;;20.70;1.00;;;;;;5032411;28;20231;-50
2021/04/28 11:25:08;;;;;;;11.60;8.83;;;20.70;1.00;;;;;;5031527;28;20195;-50
2021/04/28 11:27:43;;;;;;;9.90;8.50;;;20.70;1.00;;;;;;5034572;28;20249;-50
2021/04/28 11:30:21;;;;;;;12.27;8.27;;;20.70;1.00;;;;;;5026896;28;20267;-50
2021/04/28 11:33:11;;;;;;;14.33;8.37;;;20.30;1.00;;;;;;5030935;28;20248;-50
2021/04/28 11:35:39;;;;;;;12.30;9.47;;;20.30;1.00;;;;;;5035729;28;20238;-50
2021/04/28 11:38:08;;;;;;;11.70;9.13;;;20.50;1.00;;;;;;5032266;28;20653;-51
2021/04/28 11:41:02;;;;;;;13.77;8.80;;;20.50;1.00;;;;;;5028500;28;20298;-50
2021/04/28 11:43:46;;;;;;;12.90;9.30;;;21.10;1.00;;;;;;5027945;28;20658;-50
2021/04/28 11:46:24;;;;;;;10.97;8.53;;;20.10;1.00;;;;;;5033650;28;20269;-50
2021/04/28 11:48:55;;;;;;;11.90;8.20;;;20.30;1.00;;;;;;5036751;28;20267;-50
2021/04/28 11:51:27;;;;;;;13.33;9.20;;;19.90;1.00;;;;;;5032101;28;20198;-50
2021/04/28 11:54:11;;;;;;;9.63;8.47;;;20.00;1.00;;;;;;5039185;28;20202;-50
2021/04/28 11:56:42;;;;;;;14.77;8.73;;;19.80;1.00;;;;;;5036914;28;20291;-50
2021/04/28 11:59:23;;;;;;;11.83;8.17;;;20.30;1.00;;;;;;5034491;28;20209;-50
2021/04/28 12:02:00;;;;;;;10.30;8.17;;;20.50;1.00;;;;;;5032344;28;20279;-50
2021/04/28 12:04:38;;;;;;;10.77;8.77;;;20.90;1.00;;;;;;5035973;28;20665;-50
2021/04/28 12:07:06;;;;;;;11.57;8.43;;;21.10;1.00;;;;;;5037757;28;20203;-51
2021/04/28 12:09:46;;;;;;;15.67;8.83;;;20.70;1.00;;;;;;5031430;28;20211;-50
2021/04/28 12:12:25;;;;;;;14.60;9.57;;;20.70;1.00;;;;;;5038111;28;20196;-51
2021/04/28 12:14:53;;;;;;;11.83;9.10;;;20.60;1.00;;;;;;5027585;28;20270;-50
2021/04/28 12:17:25;;;;;;;13.93;9.27;;;20.50;1.00;;;;;;5030468;28;20239;-50
2021/04/28 12:19:57;;;;;;;11.90;9.20;;;20.40;1.00;;;;;;5032752;28;20199;-50
2021/04/28 12:22:25;;;;;;;13.33;9.77;;;20.40;1.00;;;;;;5031381;28;20249;-50
2021/04/28 12:24:53;;;;;;;13.00;9.20;;;20.70;1.00;;;;;;5033589;28;20262;-50
2021/04/28 12:27:21;;;;;;;12.83;9.70;;;21.00;1.00;;;;;;5033563;28;20327;-50
2021/04/28 12:29:55;;;;;;;13.97;9.90;;;20.80;1.00;;;;;;5035363;28;20320;-50
2021/04/28 12:32:24;;;;;;;13.87;9.33;;;21.40;1.00;;;;;;5035400;28;20274;-50
2021/04/28 12:35:11;;;;;;;11.97;9.60;;;21.40;1.00;;;;;;5032846;28;20227;-51
2021/04/28 12:37:39;;;;;;;13.27;9.80;;;21.30;1.00;;;;;;5038111;28;20228;-51
2021/04/28 12:40:09;;;;;;;12.13;9.53;;;21.50;1.00;;;;;;5042165;28;21552;-50
2021/04/28 12:42:37;;;;;;;14.20;9.67;;;21.20;1.00;;;;;;5033760;28;20663;-50
2021/04/28 12:45:10;;;;;;;14.03;9.73;;;21.10;1.00;;;;;;5031670;28;20804;-50
2021/04/28 12:47:37;;;;;;;14.97;10.20;;;21.10;1.00;;;;;;5035100;28;20262;-51
2021/04/28 12:50:13;;;;;;;11.63;8.80;;;21.60;1.00;;;;;;5034003;28;20605;-50
2021/04/28 12:52:42;;;;;;;13.10;9.13;;;22.00;1.00;;;;;;5039168;28;20270;-51
2021/04/28 12:55:27;;;;;;;14.43;9.93;;;22.10;1.00;;;;;;5033309;28;20208;-50
2021/04/28 12:58:03;;;;;;;14.50;10.33;;;21.80;1.00;;;;;;5040091;28;20235;-50
2021/04/28 13:00:33;;;;;;;11.33;9.70;;;21.10;1.00;;;;;;5034531;28;20593;-50
2021/04/28 13:03:03;;;;;;;16.63;10.47;;;21.30;1.00;;;;;;5039513;28;20629;-50